Emery, UT

9:36 AM MDT on August 17, 2019 (GMT -0600)
Castle Heights | | Change Station
Active Advisory: Fire Weather Warning

Elev 5843 ft 39.23 °N, 111.02 °W | Updated 5 minutes ago

Clear
Clear
68.3 °F
Feels Like 68.3 °F
N
2
Wind Variable Wind from East
Gusts 5.0 mph

Today
High -- | Low -- °F
--% Chance of Precip.
Yesterday
High -- | Low -- °F
Precip. -- in
Pressure 29.78 in
Visibility 10.0 miles
Clouds Clear
Dew Point 42 °F
Humidity 39%
Rainfall 0.00 in
Snow Depth Not available.
6:40 AM 8:17 PM
Waning Gibbous, 96% visible
METAR KPUC 171453Z AUTO 25003KT 10SM CLR 21/00 A3003 RMK AO2 SLP082 T02110000 51010
Pressure 29.78 in
Visibility 10.0 miles
Clouds Clear
Dew Point 42 °F
Humidity 39%
Rainfall 0.00 in
Snow Depth Not available.
6:40 AM 8:17 PM
Waning Gibbous, 96% visible
METAR KPUC 171453Z AUTO 25003KT 10SM CLR 21/00 A3003 RMK AO2 SLP082 T02110000 51010

Get Your Daily Forecast Email!

Thanks for signing up!

Be on the lookout for a verification email in your inbox.

You'll start receiving severe weather alerts in your inbox..

×

10-Day Weather Forecast

Almanac

Astronomy

Aug. 17, 2019 Rise Set
Actual Time
Civil Twilight
Nautical Twilight
Astronomical Twilight
Moon
Length of Visible Light
Length of Day
Tomorrow will be .
, % of the Moon is Illuminated

Today's Extremes

State Highs State Lows

Community

WunderPhotos

Category 6

Welcome to Category 6. This is the collective home for Weather Underground's featured writeups by Dr. Jeff Masters (right), Bob Henson (left), Chris Burt, and other regular contributors.

Nearby

Air Quality

  Air Quality AQ Index Pollutant
Not available.

Snow Depth

Station Depth Elevation

Earthquake Activity

City Distance Mag. Time & Date
Minimum magnitude displayed is 2.5.

Coastal Water Temperatures

Place Temperature

Stations

Nearby Weather Stations

Station Location Temp. Windchill Dew Point Humidity Wind Precip. Elev Updated Type
                   

Watches & Warnings

Fire Weather Warning
Issued: 8:55 AM MDT Aug. 17, 2019 – National Weather Service

... Red flag warning remains in effect until 9 PM MDT this evening
for wind and low relative humidity for fire weather zones 482...
484 and 489...

* affected area... fire weather zone 482 western Uintah basin...
fire weather zone 484 tavaputs plateau and fire weather zone
489 San Rafael Swell.

* Winds... west 10 to 20 mph with gusts up to 30 mph.

* Relative humidity... as low as 7 percent.

* Impacts... any fires that develop will have the potential for
rapid growth. Outdoor burning is not recommended.

Precautionary/preparedness actions...

A red flag warning means that critical fire weather conditions
are either occurring now... or are imminent. A combination of
strong winds... low relative humidity... and warm temperatures can
contribute to extreme fire behavior.



For more information from NOAA/National Weather Service visit...
http://weather.Gov/saltlakecity